Concord, Louisiana
Current Conditions -  °F | °C
As of 9:15 AM on Friday 31 Oct 2014 (Local Time) from KBQP Reporting Station
Clear Clear  
Wind Chill: 57°   Ceiling: Unl
Heat Index: 57°   Visibility: 10mi
Dew Point: 46°   Wind: 8mph
Humidity: 65%   Direction: 330°NNW
Pressure: 30.14"   Gusts: 17mph
Location:  32.8667°N, 91.4273°W
Report Text: KBQP 311415Z AUTO 33007G15KT 10SM CLR 14/08 A3014 RMK AO2 T01400076
Loading
Personal Weather Stations






























Interactive Weather Map
Tropical Storm Tracking
New forecast layout! Learn more

10-Day Weather Forecast

Advertisements
Track Severe Weather on mobile